Homer, Nebraska
Current Conditions -  °F | °C
As of 5:52 AM on Monday 20 Oct 2014 (Local Time) from KSUX Reporting Station
Clear Clear  
Wind Chill:   Ceiling: Unl
Heat Index:   Visibility: 10mi
Dew Point:   Wind: 5mph
Humidity: 93%   Direction: 320°NW
Pressure: 30.04"   Gusts: NA
Location:  42.32°N, 96.49°W
Report Text: KSUX 201052Z 32004KT 10SM CLR 05/04 A3004 RMK AO2 SLP174 T00500039
Loading
Personal Weather Stations






























Interactive Weather Map
Tropical Storm Tracking
New forecast layout! Learn more

10-Day Weather Forecast

Advertisements
Track Severe Weather on mobile